Time;durP1;ratioP1;P1;durP2;ratioP2;P2;SDS_P1;SDS_P2;PMS_P1;PMS_P2;Temp;Humidity;BMP_temperature;BMP_pressure;BME280_temperature;BME280_humidity;BME280_pressure;Samples;Min_cycle;Max_cycle;Signal;HPM_P1;HPM_P2
2022/05/13 00:00:28;;;;;;;1.65;0.50;;;13.20;65.30;;;;;;2072790;28;20041;-90
2022/05/13 00:01:47;;;;;;;1.58;0.40;;;13.20;65.40;;;;;;2073349;28;20046;-89
2022/05/13 00:03:07;;;;;;;2.67;0.40;;;13.20;65.50;;;;;;2068242;28;20039;-90
2022/05/13 00:04:26;;;;;;;1.95;0.30;;;13.20;65.60;;;;;;2057180;28;20167;-90
2022/05/13 00:05:45;;;;;;;1.50;0.60;;;13.20;65.60;;;;;;2076805;28;20069;-90
2022/05/13 00:07:05;;;;;;;1.05;0.40;;;13.20;65.70;;;;;;2078640;28;20113;-90
2022/05/13 00:08:24;;;;;;;2.43;0.50;;;13.20;66.40;;;;;;2084001;28;20045;-89
2022/05/13 00:10:05;;;;;;;1.00;0.40;;;13.20;65.80;;;;;;2078646;28;20038;-89
2022/05/13 00:11:24;;;;;;;0.70;0.30;;;13.20;65.90;;;;;;2074881;28;20042;-89
2022/05/13 00:12:44;;;;;;;2.13;0.50;;;13.20;65.90;;;;;;2063781;28;20038;-90
2022/05/13 00:14:04;;;;;;;2.15;0.55;;;13.20;65.90;;;;;;2065407;28;20531;-89
2022/05/13 00:15:25;;;;;;;;;;;13.10;66.00;;;;;;2080232;28;20025;-89
2022/05/13 00:16:45;;;;;;;2.08;0.30;;;13.10;65.80;;;;;;2068232;28;19909;-89
2022/05/13 00:18:04;;;;;;;1.08;0.40;;;13.10;65.80;;;;;;2067778;28;20042;-89
2022/05/13 00:19:23;;;;;;;1.00;0.47;;;13.10;65.80;;;;;;2062495;28;20038;-89
2022/05/13 00:20:43;;;;;;;1.67;0.40;;;13.10;66.00;;;;;;2071083;28;20500;-89
2022/05/13 00:22:03;;;;;;;2.70;0.68;;;13.10;66.00;;;;;;2073398;28;20276;-89
2022/05/13 00:23:22;;;;;;;1.50;0.30;;;13.00;66.10;;;;;;2072947;28;20054;-90
2022/05/13 00:24:42;;;;;;;1.88;0.40;;;13.00;66.10;;;;;;2066810;28;20046;-89
2022/05/13 00:26:01;;;;;;;3.78;0.60;;;13.00;66.20;;;;;;2066964;28;20042;-90
2022/05/13 00:27:22;;;;;;;1.40;0.70;;;13.00;66.30;;;;;;2066297;28;20042;-89
2022/05/13 00:28:41;;;;;;;1.77;0.50;;;13.00;66.50;;;;;;2066652;28;20038;-90
2022/05/13 00:30:00;;;;;;;1.20;0.40;;;12.90;67.10;;;;;;2072589;28;20046;-89
2022/05/13 00:31:19;;;;;;;1.00;0.40;;;12.90;66.60;;;;;;2055807;28;20039;-89
2022/05/13 00:32:40;;;;;;;1.67;0.50;;;12.90;66.60;;;;;;2060085;28;20073;-89
2022/05/13 00:33:59;;;;;;;2.40;0.50;;;12.90;66.70;;;;;;2070596;28;20037;-89
2022/05/13 00:35:20;;;;;;;2.38;0.40;;;12.90;66.70;;;;;;2072445;28;20042;-89
2022/05/13 00:36:40;;;;;;;1.50;0.40;;;12.80;67.10;;;;;;2074548;28;20057;-89
2022/05/13 00:37:59;;;;;;;1.52;0.50;;;12.80;66.90;;;;;;2055005;28;20051;-89
2022/05/13 00:39:19;;;;;;;2.90;0.57;;;12.80;67.00;;;;;;2070960;28;20116;-90
2022/05/13 00:40:40;;;;;;;1.77;0.47;;;12.80;67.00;;;;;;2062946;28;20046;-89
2022/05/13 00:42:10;;;;;;;2.72;0.47;;;12.80;67.00;;;;;;2063628;28;20054;-89
2022/05/13 00:43:41;;;;;;;3.08;0.68;;;12.80;67.00;;;;;;2068131;28;20496;-89
2022/05/13 00:45:01;;;;;;;2.45;0.50;;;12.70;67.00;;;;;;2074509;28;20042;-89
2022/05/13 00:46:22;;;;;;;1.33;0.40;;;12.80;67.10;;;;;;2066267;28;20026;-88
2022/05/13 00:47:42;;;;;;;1.55;0.40;;;12.70;67.10;;;;;;2062601;28;20046;-89
2022/05/13 00:49:05;;;;;;;1.42;0.40;;;12.70;67.10;;;;;;2069195;28;20404;-89
2022/05/13 00:50:25;;;;;;;0.95;0.30;;;12.80;67.20;;;;;;2066134;28;20046;-89
2022/05/13 00:51:47;;;;;;;1.33;0.50;;;12.70;67.20;;;;;;2071457;28;20026;-89
2022/05/13 00:53:07;;;;;;;1.75;0.52;;;12.70;67.30;;;;;;2074740;28;20109;-89
2022/05/13 00:54:28;;;;;;;1.23;0.40;;;12.70;67.30;;;;;;2073987;28;20049;-89
2022/05/13 00:55:47;;;;;;;0.98;0.32;;;12.70;67.30;;;;;;2050092;29;20050;-89
2022/05/13 00:57:06;;;;;;;1.83;0.60;;;12.70;67.30;;;;;;2051966;28;20055;-88
2022/05/13 00:58:26;;;;;;;2.92;0.40;;;12.70;67.40;;;;;;2039315;29;20043;-89
2022/05/13 00:59:49;;;;;;;1.85;0.60;;;12.70;67.50;;;;;;2062879;28;20124;-89
2022/05/13 01:01:09;;;;;;;1.20;0.38;;;12.60;67.50;;;;;;2075936;28;20038;-89
2022/05/13 01:02:29;;;;;;;0.63;0.43;;;12.60;67.50;;;;;;2076303;28;20037;-90
2022/05/13 01:03:50;;;;;;;2.08;0.52;;;12.60;67.60;;;;;;2075998;28;20034;-88
2022/05/13 01:05:11;;;;;;;2.72;0.40;;;12.60;67.60;;;;;;2065917;28;20038;-90
2022/05/13 01:06:31;;;;;;;2.35;0.60;;;12.60;67.60;;;;;;2063682;28;20038;-89
2022/05/13 01:07:51;;;;;;;1.17;0.35;;;12.60;67.70;;;;;;2066794;28;20034;-89
2022/05/13 01:09:11;;;;;;;1.92;0.45;;;12.60;67.90;;;;;;2066268;28;20046;-89
2022/05/13 01:10:33;;;;;;;1.50;0.47;;;12.50;67.80;;;;;;2063506;28;20046;-89
2022/05/13 01:11:59;;;;;;;1.50;0.40;;;12.50;67.90;;;;;;2078269;28;20046;-89
2022/05/13 01:13:23;;;;;;;1.73;0.40;;;12.50;68.70;;;;;;2074916;28;20062;-88
2022/05/13 01:14:56;;;;;;;1.75;0.50;;;12.40;68.10;;;;;;2071806;28;20041;-90
2022/05/13 01:16:15;;;;;;;0.93;0.50;;;12.40;68.20;;;;;;2074003;28;20034;-89
2022/05/13 01:19:15;;;;;;;4.15;0.50;;;12.40;68.30;;;;;;2066798;28;20042;-89
2022/05/13 01:20:46;;;;;;;1.35;0.32;;;12.40;68.40;;;;;;2071318;28;20046;-90
2022/05/13 01:22:16;;;;;;;1.77;0.55;;;12.40;68.40;;;;;;2073922;28;20038;-90
2022/05/13 01:23:42;;;;;;;1.85;0.45;;;12.40;68.40;;;;;;2074989;28;20105;-90
2022/05/13 01:25:01;;;;;;;1.20;0.63;;;12.40;68.50;;;;;;2082049;28;20085;-89
2022/05/13 01:26:29;;;;;;;2.97;0.60;;;12.40;68.50;;;;;;2065508;28;20497;-89
2022/05/13 01:27:48;;;;;;;1.58;0.50;;;12.30;68.60;;;;;;2072292;28;20508;-89
2022/05/13 01:29:07;;;;;;;1.02;0.35;;;12.30;68.60;;;;;;2074447;28;20045;-89
2022/05/13 01:30:30;;;;;;;1.30;0.40;;;12.30;68.70;;;;;;2065379;28;20505;-90
2022/05/13 01:31:49;;;;;;;2.75;0.68;;;12.30;68.80;;;;;;2063278;28;20038;-88
2022/05/13 01:33:10;;;;;;;2.95;0.50;;;12.30;68.90;;;;;;2066036;28;20038;-89
2022/05/13 01:34:29;;;;;;;2.13;0.60;;;12.30;69.00;;;;;;2069706;28;20046;-89
2022/05/13 01:35:51;;;;;;;2.83;0.63;;;12.30;69.00;;;;;;2065800;28;20505;-89
2022/05/13 01:37:11;;;;;;;2.25;0.45;;;12.30;69.00;;;;;;2070896;28;20524;-89
2022/05/13 01:38:33;;;;;;;2.65;0.60;;;12.30;69.00;;;;;;2073828;28;20493;-89
2022/05/13 01:39:53;;;;;;;2.50;0.60;;;12.30;69.20;;;;;;2073174;28;20062;-89
2022/05/13 01:41:13;;;;;;;1.98;0.40;;;12.30;69.20;;;;;;2074267;28;20049;-89
2022/05/13 01:42:34;;;;;;;2.78;0.60;;;12.20;69.20;;;;;;2064872;28;20034;-89
2022/05/13 01:43:53;;;;;;;1.23;0.45;;;12.20;69.30;;;;;;2070801;28;20128;-89
2022/05/13 01:45:13;;;;;;;1.17;0.50;;;12.30;69.40;;;;;;2073644;28;20073;-89
2022/05/13 01:46:32;;;;;;;1.80;0.52;;;12.20;69.30;;;;;;2065812;28;20042;-89
2022/05/13 01:47:51;;;;;;;1.55;0.50;;;12.30;69.40;;;;;;2062583;28;20117;-89
2022/05/13 01:49:10;;;;;;;1.45;0.57;;;12.20;69.40;;;;;;2070546;28;20049;-90
2022/05/13 01:50:29;;;;;;;2.17;0.52;;;12.20;69.50;;;;;;2066095;28;20042;-88
2022/05/13 01:51:48;;;;;;;1.30;0.60;;;12.20;69.50;;;;;;2071023;28;20049;-89
2022/05/13 01:53:08;;;;;;;3.25;0.65;;;12.20;69.60;;;;;;2065468;28;20066;-89
2022/05/13 01:54:27;;;;;;;1.73;0.63;;;12.20;69.60;;;;;;2071136;28;20038;-89
2022/05/13 01:55:47;;;;;;;1.45;0.40;;;12.20;69.70;;;;;;2056787;28;20043;-88
2022/05/13 01:57:07;;;;;;;1.30;0.50;;;12.20;69.80;;;;;;2062448;28;20043;-89
2022/05/13 01:58:26;;;;;;;2.25;0.50;;;12.20;69.80;;;;;;2066724;28;20038;-89
2022/05/13 01:59:46;;;;;;;0.82;0.40;;;12.20;69.90;;;;;;2070799;28;20038;-89
2022/05/13 02:01:07;;;;;;;3.85;0.55;;;12.20;69.90;;;;;;2076933;28;20034;-90
2022/05/13 02:02:26;;;;;;;;;;;12.20;69.90;;;;;;2074712;28;20030;-89
2022/05/13 02:03:45;;;;;;;2.90;0.50;;;12.20;69.80;;;;;;2068883;28;19919;-89
2022/05/13 02:05:05;;;;;;;1.90;0.70;;;12.20;69.80;;;;;;2065462;28;20431;-88
2022/05/13 02:06:26;;;;;;;1.63;0.63;;;12.20;69.80;;;;;;2054040;28;20138;-89
2022/05/13 02:07:45;;;;;;;1.27;0.50;;;12.10;69.90;;;;;;2062109;28;20854;-89
2022/05/13 02:09:04;;;;;;;2.28;0.52;;;12.20;70.00;;;;;;2062279;28;20035;-89
2022/05/13 02:10:23;;;;;;;2.60;0.50;;;12.20;70.10;;;;;;2059765;28;20054;-89
2022/05/13 02:11:45;;;;;;;2.08;0.50;;;12.20;70.20;;;;;;2060083;28;20034;-89
2022/05/13 02:13:05;;;;;;;2.53;0.60;;;12.20;70.20;;;;;;2066229;28;20114;-89
2022/05/13 02:14:24;;;;;;;2.90;0.60;;;12.20;70.20;;;;;;2073078;28;20078;-89
2022/05/13 02:15:43;;;;;;;3.72;0.60;;;12.20;70.20;;;;;;2073587;28;20046;-89
2022/05/13 02:17:03;;;;;;;2.35;0.73;;;12.20;70.30;;;;;;2065183;28;20058;-89
2022/05/13 02:18:22;;;;;;;2.00;0.45;;;12.20;70.30;;;;;;2061785;28;20433;-89
2022/05/13 02:19:41;;;;;;;1.90;0.52;;;12.20;70.90;;;;;;2054002;28;20046;-89
2022/05/13 02:21:01;;;;;;;2.55;0.70;;;12.20;71.00;;;;;;2059383;28;20038;-89
2022/05/13 02:22:20;;;;;;;1.60;0.47;;;12.20;70.50;;;;;;2065650;28;20066;-90
2022/05/13 02:23:40;;;;;;;2.47;0.50;;;12.20;70.50;;;;;;2076616;28;20038;-89
2022/05/13 02:25:00;;;;;;;2.55;0.40;;;12.20;70.60;;;;;;2068632;28;20050;-88
2022/05/13 02:26:19;;;;;;;1.67;0.70;;;12.20;70.50;;;;;;2064669;28;20038;-89
2022/05/13 02:27:39;;;;;;;2.83;0.55;;;12.20;70.60;;;;;;2062237;28;20039;-88
2022/05/13 02:29:01;;;;;;;3.08;0.60;;;12.20;70.70;;;;;;2070551;28;20364;-89
2022/05/13 02:30:21;;;;;;;2.70;0.60;;;12.20;70.70;;;;;;2073538;28;20034;-89
2022/05/13 02:31:41;;;;;;;2.08;0.60;;;12.20;70.70;;;;;;2057518;28;20062;-89
2022/05/13 02:33:00;;;;;;;1.67;0.47;;;12.30;70.80;;;;;;2054418;28;20501;-89
2022/05/13 02:34:20;;;;;;;1.70;0.50;;;12.30;70.80;;;;;;2062582;28;20478;-89
2022/05/13 02:35:39;;;;;;;2.70;0.68;;;12.20;70.80;;;;;;2056981;28;20052;-89
2022/05/13 02:36:58;;;;;;;3.30;0.68;;;12.20;71.50;;;;;;2062541;28;20038;-89
2022/05/13 02:38:18;;;;;;;1.90;0.50;;;12.30;71.00;;;;;;2066755;28;20493;-89
2022/05/13 02:39:38;;;;;;;1.55;0.47;;;12.30;71.10;;;;;;2075632;28;20403;-89
2022/05/13 02:41:13;;;;;;;1.27;0.43;;;12.20;71.10;;;;;;2065324;28;20047;-89
2022/05/13 02:42:32;;;;;;;1.92;0.63;;;12.20;71.10;;;;;;2072847;28;20520;-89
2022/05/13 02:43:53;;;;;;;3.05;0.60;;;12.20;71.10;;;;;;2072975;28;20062;-89
2022/05/13 02:45:12;;;;;;;2.38;0.50;;;12.20;71.20;;;;;;2072851;28;20400;-89
2022/05/13 02:46:32;;;;;;;2.17;0.60;;;12.20;71.30;;;;;;2074031;28;20038;-89
2022/05/13 02:47:51;;;;;;;1.33;0.70;;;12.20;71.30;;;;;;2064951;28;20039;-89
2022/05/13 02:49:11;;;;;;;2.55;0.70;;;12.30;71.40;;;;;;2060884;28;20038;-88
2022/05/13 02:50:30;;;;;;;2.60;0.60;;;12.20;71.40;;;;;;2057014;28;20489;-89
2022/05/13 02:51:50;;;;;;;5.05;0.85;;;12.20;71.50;;;;;;2062202;28;20097;-89
2022/05/13 02:53:09;;;;;;;3.17;0.52;;;12.20;71.50;;;;;;2049551;29;20514;-89
2022/05/13 02:54:28;;;;;;;2.08;0.57;;;12.30;71.60;;;;;;2056156;28;20884;-89
2022/05/13 02:55:48;;;;;;;1.95;0.63;;;12.30;71.60;;;;;;2062494;28;20090;-87
2022/05/13 02:57:07;;;;;;;1.92;0.57;;;12.20;71.60;;;;;;2066450;28;20121;-89
2022/05/13 02:58:26;;;;;;;2.80;0.70;;;12.30;71.70;;;;;;2077093;28;20050;-89
2022/05/13 02:59:45;;;;;;;2.75;0.60;;;12.30;71.70;;;;;;2073264;28;20039;-88
2022/05/13 03:01:06;;;;;;;1.88;0.63;;;12.30;71.80;;;;;;2067571;28;20070;-88
2022/05/13 03:02:26;;;;;;;2.95;0.73;;;12.30;71.80;;;;;;2074189;28;20042;-89
2022/05/13 03:03:47;;;;;;;2.80;0.77;;;12.30;71.90;;;;;;2065078;28;20031;-89
2022/05/13 03:05:06;;;;;;;2.97;0.70;;;12.30;71.90;;;;;;2064971;28;20046;-89
2022/05/13 03:06:26;;;;;;;2.25;0.80;;;12.30;72.10;;;;;;2063992;28;20113;-90
2022/05/13 03:07:45;;;;;;;2.50;0.70;;;12.30;72.10;;;;;;2078640;28;20049;-90
2022/05/13 03:09:05;;;;;;;2.40;0.68;;;12.30;72.80;;;;;;2076672;28;20037;-89
2022/05/13 03:10:24;;;;;;;4.60;1.00;;;12.30;72.30;;;;;;2057106;28;20074;-89
2022/05/13 03:11:43;;;;;;;3.10;0.80;;;12.30;72.30;;;;;;2059291;28;20034;-88
2022/05/13 03:13:05;;;;;;;3.03;0.68;;;12.30;72.40;;;;;;2062008;28;20047;-89
2022/05/13 03:14:24;;;;;;;3.03;0.80;;;12.30;72.50;;;;;;2070301;28;20042;-88
2022/05/13 03:15:44;;;;;;;3.13;0.90;;;12.30;72.60;;;;;;2056428;28;20046;-89
2022/05/13 03:17:05;;;;;;;4.60;0.90;;;12.30;72.70;;;;;;2054930;28;20042;-89
2022/05/13 03:18:24;;;;;;;4.00;0.95;;;12.30;72.80;;;;;;2061431;28;20038;-89
2022/05/13 03:19:44;;;;;;;3.08;1.08;;;12.40;72.90;;;;;;2057179;28;20428;-89
2022/05/13 03:21:03;;;;;;;3.95;0.90;;;12.40;72.90;;;;;;2066208;28;20125;-89
2022/05/13 03:22:23;;;;;;;3.85;0.82;;;12.40;72.90;;;;;;2065336;28;20425;-89
2022/05/13 03:23:44;;;;;;;3.72;0.90;;;12.30;73.00;;;;;;2070663;28;20042;-88
2022/05/13 03:25:04;;;;;;;2.00;0.90;;;12.30;73.10;;;;;;2065098;28;20497;-89
2022/05/13 03:26:24;;;;;;;2.17;0.80;;;12.40;73.20;;;;;;2069967;28;20046;-89
2022/05/13 03:27:43;;;;;;;2.70;0.77;;;12.40;73.20;;;;;;2065262;28;20129;-89
2022/05/13 03:29:04;;;;;;;4.10;1.10;;;12.40;73.30;;;;;;2061492;28;20509;-89
2022/05/13 03:30:25;;;;;;;4.25;1.35;;;12.40;73.30;;;;;;2070310;28;20149;-89
2022/05/13 03:31:45;;;;;;;3.80;1.00;;;12.40;73.40;;;;;;2073831;28;20042;-88
2022/05/13 03:33:04;;;;;;;3.08;1.13;;;12.40;73.50;;;;;;2064344;28;20465;-89
2022/05/13 03:34:23;;;;;;;5.60;1.30;;;12.40;73.60;;;;;;2049057;28;20043;-89
2022/05/13 03:35:42;;;;;;;2.38;1.13;;;12.40;73.60;;;;;;2066137;28;20038;-89
2022/05/13 03:37:01;;;;;;;4.25;1.10;;;12.40;73.70;;;;;;2065323;28;20046;-89
2022/05/13 03:38:21;;;;;;;2.67;1.05;;;12.40;73.70;;;;;;2061416;28;20034;-89
2022/05/13 03:39:40;;;;;;;3.80;1.10;;;12.40;73.80;;;;;;2049692;28;20070;-89
2022/05/13 03:41:00;;;;;;;2.92;1.20;;;12.40;73.80;;;;;;2073552;28;20037;-89
2022/05/13 03:42:20;;;;;;;3.40;0.90;;;12.50;73.90;;;;;;2081334;28;20435;-89
2022/05/13 03:43:40;;;;;;;3.13;1.08;;;12.50;73.90;;;;;;2073375;28;20034;-90
2022/05/13 03:44:59;;;;;;;4.32;1.00;;;12.50;74.00;;;;;;2078866;28;20057;-89
2022/05/13 03:46:18;;;;;;;5.10;1.45;;;12.50;74.10;;;;;;2073085;28;20033;-89
2022/05/13 03:47:38;;;;;;;4.97;1.30;;;12.50;74.20;;;;;;2078477;28;20065;-89
2022/05/13 03:48:57;;;;;;;3.47;1.20;;;12.50;74.30;;;;;;2071286;28;20030;-89
2022/05/13 03:50:17;;;;;;;4.55;1.23;;;12.50;74.40;;;;;;2076800;28;20451;-89
2022/05/13 03:51:36;;;;;;;4.30;1.13;;;12.40;74.40;;;;;;2072619;28;20042;-90
2022/05/13 03:52:55;;;;;;;3.83;1.30;;;12.50;75.10;;;;;;2079725;28;20081;-88
2022/05/13 03:54:14;;;;;;;3.83;1.48;;;12.50;74.70;;;;;;2075934;28;20034;-88
2022/05/13 03:55:35;;;;;;;3.22;1.15;;;12.50;74.70;;;;;;2082114;28;20041;-89
2022/05/13 03:56:54;;;;;;;3.58;1.33;;;12.40;74.70;;;;;;2074162;28;20038;-89
2022/05/13 03:58:13;;;;;;;5.88;1.40;;;12.40;74.70;;;;;;2081913;28;20045;-89
2022/05/13 03:59:33;;;;;;;4.25;1.40;;;12.50;74.90;;;;;;2082511;28;20045;-89
2022/05/13 04:00:52;;;;;;;3.97;1.08;;;12.50;74.90;;;;;;2082936;28;20437;-89
2022/05/13 04:02:11;;;;;;;4.95;1.30;;;12.40;74.90;;;;;;2075490;28;20046;-89
2022/05/13 04:03:31;;;;;;;3.85;1.25;;;12.50;75.00;;;;;;2071483;28;20034;-89
2022/05/13 04:09:44;;;;;;;4.85;1.40;;;12.30;75.20;;;;;;2081973;28;20484;-88
2022/05/13 04:11:03;;;;;;;4.97;1.38;;;12.40;75.40;;;;;;2073910;28;20049;-89
2022/05/13 04:16:06;;;;;;;;;;;12.30;75.50;;;;;;2084820;28;20045;-89
2022/05/13 04:17:25;;;;;;;4.18;1.38;;;12.20;75.40;;;;;;2075095;28;19917;-89
2022/05/13 04:18:47;;;;;;;5.07;1.40;;;12.30;75.40;;;;;;2066673;28;20046;-90
2022/05/13 04:20:07;;;;;;;3.38;1.40;;;12.20;75.40;;;;;;2062193;28;20089;-90
2022/05/13 04:21:29;;;;;;;3.90;1.10;;;12.20;75.60;;;;;;2068763;28;20038;-89
2022/05/13 04:22:48;;;;;;;5.22;1.70;;;12.20;75.60;;;;;;2071421;28;20033;-89
2022/05/13 04:24:11;;;;;;;4.63;1.40;;;12.20;75.70;;;;;;2076987;28;20045;-90
2022/05/13 04:25:32;;;;;;;3.53;1.08;;;12.20;75.80;;;;;;2076159;28;20065;-90
2022/05/13 04:26:51;;;;;;;4.45;1.55;;;12.20;75.90;;;;;;2076589;28;20042;-86
2022/05/13 04:28:11;;;;;;;5.43;1.45;;;12.20;76.00;;;;;;2078431;28;20034;-90
2022/05/13 04:29:30;;;;;;;6.55;1.50;;;12.20;76.10;;;;;;2062135;28;20047;-91
2022/05/13 04:30:49;;;;;;;4.97;1.30;;;12.20;76.20;;;;;;2071092;28;20037;-90
2022/05/13 04:32:09;;;;;;;4.15;1.30;;;12.20;76.30;;;;;;2074620;28;20492;-89
2022/05/13 04:33:28;;;;;;;7.50;1.70;;;12.20;76.40;;;;;;2080480;28;20045;-89
2022/05/13 04:34:48;;;;;;;6.57;1.95;;;12.20;76.40;;;;;;2074520;28;20121;-90
2022/05/13 04:36:08;;;;;;;4.25;1.25;;;12.20;76.50;;;;;;2072692;28;20073;-90
2022/05/13 04:37:28;;;;;;;5.28;1.58;;;12.20;76.60;;;;;;2080135;28;20018;-90
2022/05/13 04:38:47;;;;;;;5.82;1.75;;;12.20;76.60;;;;;;2079844;28;20038;-91
2022/05/13 04:40:07;;;;;;;5.28;1.60;;;12.20;76.60;;;;;;2074605;28;20467;-89
2022/05/13 04:43:06;;;;;;;3.50;1.20;;;12.30;76.70;;;;;;2079277;28;20536;-90
2022/05/13 04:44:25;;;;;;;4.10;1.45;;;12.20;76.60;;;;;;2068403;28;20046;-91
2022/05/13 04:45:44;;;;;;;3.72;1.50;;;12.30;76.70;;;;;;2072344;28;20516;-90
2022/05/13 04:48:14;;;;;;;4.82;1.60;;;12.30;76.70;;;;;;2073226;28;20038;-90
2022/05/13 04:48:43;;;;;;;4.47;1.67;;;12.30;76.70;;;;;;2083788;28;20033;-89
2022/05/13 04:50:05;;;;;;;4.47;1.45;;;12.30;76.70;;;;;;2063664;28;20055;-89
2022/05/13 04:51:26;;;;;;;5.55;1.60;;;12.30;76.70;;;;;;2068607;28;20042;-89
2022/05/13 04:52:45;;;;;;;4.75;1.50;;;12.30;76.80;;;;;;2071273;28;20037;-90
2022/05/13 04:54:06;;;;;;;5.47;1.85;;;12.30;76.80;;;;;;2073325;28;20042;-91
2022/05/13 04:55:25;;;;;;;6.68;1.67;;;12.40;77.00;;;;;;2075938;28;20042;-91
2022/05/13 04:56:44;;;;;;;5.60;1.60;;;12.40;77.00;;;;;;2075621;28;20108;-90
2022/05/13 04:58:07;;;;;;;3.35;1.50;;;12.40;77.00;;;;;;2062109;28;20046;-91
2022/05/13 04:59:26;;;;;;;4.60;1.45;;;12.40;77.10;;;;;;2076950;28;20037;-92
2022/05/13 05:00:47;;;;;;;4.95;1.63;;;12.40;77.20;;;;;;2081148;28;20049;-90
2022/05/13 05:02:07;;;;;;;4.32;1.52;;;12.30;77.20;;;;;;2083871;28;20030;-90
2022/05/13 05:03:28;;;;;;;3.85;1.27;;;12.40;77.40;;;;;;2082862;28;20041;-90
2022/05/13 05:04:46;;;;;;;5.25;1.75;;;12.30;77.30;;;;;;2083178;28;20041;-90
2022/05/13 05:06:07;;;;;;;4.57;1.70;;;12.40;77.40;;;;;;2066604;28;20043;-91
2022/05/13 05:07:26;;;;;;;5.30;1.55;;;12.30;77.40;;;;;;2071831;28;20038;-90
2022/05/13 05:08:46;;;;;;;4.25;1.55;;;12.40;77.60;;;;;;2077742;28;20041;-92
2022/05/13 05:10:06;;;;;;;5.82;1.88;;;12.30;77.60;;;;;;2082401;28;20034;-85
2022/05/13 05:11:26;;;;;;;4.53;1.75;;;12.30;77.70;;;;;;2073241;28;20026;-90
2022/05/13 05:12:46;;;;;;;5.18;1.70;;;12.30;77.80;;;;;;2072203;28;20041;-91
2022/05/13 05:14:05;;;;;;;6.15;1.98;;;12.40;77.90;;;;;;2065008;28;20050;-90
2022/05/13 05:15:26;;;;;;;4.30;1.70;;;12.30;77.90;;;;;;2078337;28;20057;-90
2022/05/13 05:16:47;;;;;;;7.50;2.05;;;12.40;78.00;;;;;;2074960;28;20080;-91
2022/05/13 05:18:06;;;;;;;6.03;1.87;;;12.40;78.00;;;;;;2066694;28;20039;-91
2022/05/13 05:19:25;;;;;;;5.47;2.30;;;12.50;78.00;;;;;;2079759;28;20264;-91
2022/05/13 05:20:45;;;;;;;7.10;2.35;;;12.50;77.80;;;;;;2084510;28;20487;-91
2022/05/13 05:22:05;;;;;;;7.78;2.10;;;12.70;77.80;;;;;;2083083;28;20073;-90
2022/05/13 05:23:29;;;;;;;5.72;1.90;;;12.70;77.60;;;;;;2076100;28;20042;-91
2022/05/13 05:24:48;;;;;;;6.25;2.20;;;12.80;77.40;;;;;;2075321;28;20120;-91
2022/05/13 05:26:07;;;;;;;4.82;2.03;;;12.90;77.30;;;;;;2074879;28;20042;-90
2022/05/13 05:27:27;;;;;;;5.97;2.50;;;13.00;77.20;;;;;;2077525;28;20113;-92
2022/05/13 05:28:47;;;;;;;6.75;2.30;;;13.20;77.00;;;;;;2078301;28;20045;-92
2022/05/13 05:30:09;;;;;;;8.63;2.50;;;13.30;76.80;;;;;;2079081;28;20500;-92
2022/05/13 05:31:28;;;;;;;8.60;2.50;;;13.40;76.70;;;;;;2075296;28;20049;-91
2022/05/13 05:32:47;;;;;;;6.63;2.70;;;13.40;76.60;;;;;;2077218;28;20037;-93
2022/05/13 05:34:07;;;;;;;4.60;2.20;;;13.50;76.60;;;;;;2056970;28;20039;-91
2022/05/13 05:35:26;;;;;;;8.32;2.80;;;13.50;76.50;;;;;;2074474;28;20037;-92
2022/05/13 05:36:45;;;;;;;7.18;2.60;;;13.50;76.60;;;;;;2084457;28;20037;-92
2022/05/13 05:38:05;;;;;;;5.53;2.53;;;13.40;76.70;;;;;;2064533;28;20042;-92
2022/05/13 05:39:24;;;;;;;6.13;2.53;;;13.40;76.90;;;;;;2076420;28;20045;-92
2022/05/13 05:40:44;;;;;;;6.60;2.47;;;13.40;77.00;;;;;;2057102;28;20058;-91
2022/05/13 05:42:04;;;;;;;5.85;2.50;;;13.40;77.20;;;;;;2068267;28;20515;-91
2022/05/13 05:43:24;;;;;;;6.63;2.13;;;13.40;77.30;;;;;;2054327;28;20481;-91
2022/05/13 05:44:43;;;;;;;7.07;2.25;;;13.40;77.40;;;;;;2056451;28;20042;-91
2022/05/13 05:46:03;;;;;;;7.15;2.50;;;13.40;77.50;;;;;;2052374;28;20031;-90
2022/05/13 05:47:23;;;;;;;5.90;2.22;;;13.30;77.50;;;;;;2072681;28;20484;-92
2022/05/13 05:48:42;;;;;;;6.88;2.50;;;13.30;77.70;;;;;;2072810;28;20037;-92
2022/05/13 05:50:04;;;;;;;6.15;2.33;;;13.40;77.70;;;;;;2079575;28;20049;-92
2022/05/13 05:51:23;;;;;;;7.93;2.70;;;13.40;77.80;;;;;;2082516;28;20045;-92
2022/05/13 05:52:43;;;;;;;6.95;2.72;;;13.40;77.80;;;;;;2065833;28;20038;-91
2022/05/13 05:57:18;;;;;;;5.78;2.55;;;13.30;77.80;;;;;;2074265;28;20049;-92
2022/05/13 05:58:37;;;;;;;5.47;2.50;;;13.40;77.80;;;;;;2082480;28;20034;-92
2022/05/13 05:59:57;;;;;;;6.47;2.50;;;13.40;77.80;;;;;;2081709;28;20045;-92
2022/05/13 06:01:16;;;;;;;7.72;2.50;;;13.50;77.90;;;;;;2073438;28;20026;-92
2022/05/13 06:02:35;;;;;;;5.93;2.80;;;13.50;78.50;;;;;;2062477;28;20475;-92
2022/05/13 06:03:54;;;;;;;6.43;2.55;;;13.50;77.90;;;;;;2076163;28;20116;-92
2022/05/13 06:05:13;;;;;;;7.28;2.60;;;13.50;77.90;;;;;;2075193;28;20050;-92
2022/05/13 06:06:33;;;;;;;8.00;3.03;;;13.50;77.90;;;;;;2066057;28;20477;-92
2022/05/13 06:07:58;;;;;;;7.57;2.80;;;13.60;78.10;;;;;;2079454;28;20041;-90
2022/05/13 06:09:17;;;;;;;6.28;2.47;;;13.60;78.10;;;;;;2063994;28;20054;-92
2022/05/13 06:10:37;;;;;;;7.22;2.90;;;13.60;78.00;;;;;;2073684;28;20828;-91
2022/05/13 06:11:57;;;;;;;4.80;2.25;;;13.60;78.00;;;;;;2081799;28;20041;-92
2022/05/13 06:13:16;;;;;;;5.18;2.20;;;13.60;77.90;;;;;;2076828;28;20035;-92
2022/05/13 06:14:35;;;;;;;4.97;2.33;;;13.70;78.00;;;;;;2069825;28;20046;-92
2022/05/13 06:15:54;;;;;;;8.13;2.47;;;13.70;78.00;;;;;;2069676;28;20516;-92
2022/05/13 06:17:13;;;;;;;6.53;2.80;;;13.70;78.60;;;;;;2077896;28;20038;-93
2022/05/13 06:18:35;;;;;;;7.60;2.70;;;13.70;78.10;;;;;;2076187;28;20034;-92
2022/05/13 06:19:54;;;;;;;6.45;2.60;;;13.80;78.70;;;;;;2073263;28;20453;-92
2022/05/13 06:21:14;;;;;;;8.02;2.70;;;13.80;78.10;;;;;;2060631;28;20031;-89
2022/05/13 06:22:33;;;;;;;6.63;3.03;;;13.80;78.20;;;;;;2068805;28;20046;-92
2022/05/13 06:23:53;;;;;;;5.57;2.30;;;13.80;78.20;;;;;;2063627;28;20250;-92
2022/05/13 06:25:15;;;;;;;5.95;2.50;;;13.80;78.20;;;;;;2076462;28;20042;-91
2022/05/13 06:26:34;;;;;;;7.47;2.70;;;13.80;78.30;;;;;;2086968;28;20029;-93
2022/05/13 06:27:54;;;;;;;7.72;2.60;;;13.90;78.30;;;;;;2067382;28;20050;-91
2022/05/13 06:29:18;;;;;;;5.40;2.47;;;13.90;78.30;;;;;;2072645;28;20045;-91
2022/05/13 06:30:38;;;;;;;5.82;2.13;;;14.00;78.30;;;;;;2079561;28;20276;-92
2022/05/13 06:31:59;;;;;;;6.13;2.67;;;14.00;78.20;;;;;;2074431;28;20135;-92
2022/05/13 06:33:18;;;;;;;5.35;2.47;;;14.00;78.10;;;;;;2077905;28;20042;-92
2022/05/13 06:34:37;;;;;;;6.68;2.72;;;14.10;78.10;;;;;;2084376;28;20093;-92
2022/05/13 06:35:57;;;;;;;8.20;2.55;;;14.10;78.10;;;;;;2078046;28;20632;-92
2022/05/13 06:37:16;;;;;;;8.65;2.70;;;14.20;78.10;;;;;;2063884;28;20050;-91
2022/05/13 06:38:35;;;;;;;6.15;2.35;;;14.20;78.00;;;;;;2056828;28;20042;-91
2022/05/13 06:39:54;;;;;;;7.90;2.97;;;14.20;78.00;;;;;;2077495;28;20054;-91
2022/05/13 06:41:14;;;;;;;8.40;2.63;;;14.30;78.10;;;;;;2064328;28;20041;-92
2022/05/13 06:42:33;;;;;;;8.00;2.53;;;14.40;78.10;;;;;;2062472;28;20436;-92
2022/05/13 06:43:53;;;;;;;7.57;2.80;;;14.40;78.10;;;;;;2062777;28;20042;-92
2022/05/13 06:45:12;;;;;;;7.85;2.60;;;14.40;78.10;;;;;;2072360;28;20045;-91
2022/05/13 06:46:33;;;;;;;5.80;2.50;;;14.40;78.10;;;;;;2061707;28;20030;-92
2022/05/13 06:47:52;;;;;;;8.30;2.78;;;14.50;78.10;;;;;;2063725;28;20034;-93
2022/05/13 06:49:12;;;;;;;7.30;2.47;;;14.50;78.10;;;;;;2053059;28;20043;-91
2022/05/13 06:50:32;;;;;;;8.40;3.17;;;14.50;78.20;;;;;;2063037;28;20073;-92
2022/05/13 06:51:51;;;;;;;6.78;3.03;;;14.50;78.10;;;;;;2062105;28;20038;-92
2022/05/13 06:53:11;;;;;;;9.18;3.10;;;14.60;78.20;;;;;;2060779;28;20054;-92
2022/05/13 06:54:31;;;;;;;7.55;2.88;;;14.50;78.20;;;;;;2068524;28;20038;-92
2022/05/13 06:55:50;;;;;;;7.95;2.85;;;14.60;78.30;;;;;;2072976;28;20030;-92
2022/05/13 06:57:10;;;;;;;11.00;3.08;;;14.60;78.40;;;;;;2056105;28;20039;-92
2022/05/13 06:58:29;;;;;;;6.70;2.97;;;14.60;78.30;;;;;;2053965;28;20077;-92
2022/05/13 06:59:49;;;;;;;9.15;3.25;;;14.60;78.30;;;;;;2066056;28;20042;-90
2022/05/13 07:01:08;;;;;;;6.70;2.65;;;14.60;78.30;;;;;;2061246;28;20042;-90
2022/05/13 07:02:27;;;;;;;6.05;2.50;;;14.60;78.30;;;;;;2067811;28;20045;-90
2022/05/13 07:03:46;;;;;;;8.00;2.95;;;14.60;78.30;;;;;;2065333;28;20031;-91
2022/05/13 07:05:07;;;;;;;7.93;2.55;;;14.70;78.20;;;;;;2062195;28;20047;-91
2022/05/13 07:06:26;;;;;;;8.27;2.67;;;14.70;78.20;;;;;;2062570;28;20038;-91
2022/05/13 07:07:46;;;;;;;6.00;2.58;;;14.80;78.10;;;;;;2045700;29;20055;-90
2022/05/13 07:09:07;;;;;;;8.40;2.60;;;14.80;78.00;;;;;;2055328;28;20046;-91
2022/05/13 07:10:26;;;;;;;6.95;2.50;;;14.80;78.00;;;;;;2059989;28;20129;-90
2022/05/13 07:11:45;;;;;;;9.10;2.92;;;14.80;77.90;;;;;;2063956;28;20050;-90
2022/05/13 07:13:05;;;;;;;7.88;2.53;;;14.90;77.90;;;;;;2070174;28;20500;-90